KCEY/CEY METAR and TAF weather

Enter ICAO airport designator
Station Type Date Time Source
KCEY METAR 2020/07/12 06:55 UTC NOAA

KCEY 120655Z AUTO 19007KT 10SM FEW037 BKN060 OVC075 26/22 A2984 RMK AO1


Station Type Date Time Source
KCEY Decoded METAR 2020/07/12 06:55 UTC NOAA

Station name not available
Jul 12, 2020 - 02:55 AM EDT / 2020.07.12 0655 UTC
Wind: from the S (190 degrees) at 8 MPH (7 KT):0
Visibility: 10 mile(s):0
Sky conditions: overcast
Temperature: 78 F (26 C)
Dew Point: 71 F (22 C)
Relative Humidity: 78%
Pressure (altimeter): 29.84 in. Hg (1010 hPa)
ob: KCEY 120655Z AUTO 19007KT 10SM FEW037 BKN060 OVC075 26/22 A2984 RMK AO1
cycle: 7

Station Type Date Time Source
KCEY TAF UTC NOAA

Error!

Example: see airport list